In Rescue
 
Open Full Screen Window  High Contrast Mode
Wind Gusting 00 knots
03
October 19, 2020 6:23 PM CDT
Present Weather: Light Snow
Weather Information
Wind Direction
  160 °
Wind Speed
  03 kt (3 mph)
Wind Gust
  00 kt (0 mph)
Altimeter
30.25 in
Visibility
10 SM
Temperature
-01° C
30° F
Dewpoint
-02° C
28° F
Humidity
93%
1hr Rain Fall
00.00 in.
24hr Rain Fall
00.00 in.
Sky Condition
Overcast @ 7,500 ft
Broken @ 2,400 ft
Scattered @ 1,500 ft
MVFR

METAR KROS 192323Z AUTO 16003KT 10SM -SN SCT015 BKN024 OVC075 M01/M02 A3025 RMK AO2

FAA Disclaimer: The data displayed is for advisory purposes only and is not to be used for flight planning or operations.